sensor_id;sensor_type;location;lat;lon;timestamp;P1;durP1;ratioP1;P2;durP2;ratioP2
35442;SDS011;21561;55.654;37.592;2023-01-24T00:00:55;24.38;;;8.85;;
35442;SDS011;21561;55.654;37.592;2023-01-24T00:03:22;27.83;;;9.77;;
35442;SDS011;21561;55.654;37.592;2023-01-24T00:05:49;24.60;;;9.38;;
35442;SDS011;21561;55.654;37.592;2023-01-24T00:08:16;23.05;;;8.18;;
35442;SDS011;21561;55.654;37.592;2023-01-24T00:10:49;25.73;;;8.45;;
35442;SDS011;21561;55.654;37.592;2023-01-24T00:13:25;23.63;;;8.75;;
35442;SDS011;21561;55.654;37.592;2023-01-24T00:16:00;25.73;;;8.90;;
35442;SDS011;21561;55.654;37.592;2023-01-24T00:18:41;23.90;;;8.50;;
35442;SDS011;21561;55.654;37.592;2023-01-24T00:21:09;24.85;;;9.73;;
35442;SDS011;21561;55.654;37.592;2023-01-24T00:23:40;25.95;;;8.70;;
35442;SDS011;21561;55.654;37.592;2023-01-24T00:26:09;23.42;;;8.85;;
35442;SDS011;21561;55.654;37.592;2023-01-24T00:28:36;24.20;;;8.90;;
35442;SDS011;21561;55.654;37.592;2023-01-24T00:31:03;24.95;;;9.25;;
35442;SDS011;21561;55.654;37.592;2023-01-24T00:33:31;29.85;;;9.60;;
35442;SDS011;21561;55.654;37.592;2023-01-24T00:35:59;26.88;;;9.02;;
35442;SDS011;21561;55.654;37.592;2023-01-24T00:38:28;25.67;;;9.07;;
35442;SDS011;21561;55.654;37.592;2023-01-24T00:40:56;24.40;;;8.85;;
35442;SDS011;21561;55.654;37.592;2023-01-24T00:43:24;25.45;;;8.68;;
35442;SDS011;21561;55.654;37.592;2023-01-24T00:45:52;21.42;;;8.43;;
35442;SDS011;21561;55.654;37.592;2023-01-24T00:48:20;24.00;;;8.88;;
35442;SDS011;21561;55.654;37.592;2023-01-24T00:50:47;27.63;;;9.25;;
35442;SDS011;21561;55.654;37.592;2023-01-24T00:53:14;23.33;;;8.43;;
35442;SDS011;21561;55.654;37.592;2023-01-24T00:55:44;25.65;;;9.05;;
35442;SDS011;21561;55.654;37.592;2023-01-24T00:58:12;27.67;;;8.65;;
35442;SDS011;21561;55.654;37.592;2023-01-24T01:00:40;27.23;;;8.60;;
35442;SDS011;21561;55.654;37.592;2023-01-24T01:03:14;24.92;;;8.82;;
35442;SDS011;21561;55.654;37.592;2023-01-24T01:05:43;27.30;;;8.70;;
35442;SDS011;21561;55.654;37.592;2023-01-24T01:08:10;27.27;;;9.82;;
35442;SDS011;21561;55.654;37.592;2023-01-24T01:10:37;25.42;;;9.38;;
35442;SDS011;21561;55.654;37.592;2023-01-24T01:13:05;26.02;;;9.75;;
35442;SDS011;21561;55.654;37.592;2023-01-24T01:15:32;25.15;;;8.70;;
35442;SDS011;21561;55.654;37.592;2023-01-24T01:17:59;22.38;;;8.45;;
35442;SDS011;21561;55.654;37.592;2023-01-24T01:20:26;25.35;;;9.57;;
35442;SDS011;21561;55.654;37.592;2023-01-24T01:22:53;24.58;;;8.38;;
35442;SDS011;21561;55.654;37.592;2023-01-24T01:25:20;22.40;;;8.73;;
35442;SDS011;21561;55.654;37.592;2023-01-24T01:27:47;28.92;;;9.98;;
35442;SDS011;21561;55.654;37.592;2023-01-24T01:33:33;25.02;;;8.75;;
35442;SDS011;21561;55.654;37.592;2023-01-24T01:36:00;27.13;;;9.00;;
35442;SDS011;21561;55.654;37.592;2023-01-24T01:38:27;24.80;;;8.73;;
35442;SDS011;21561;55.654;37.592;2023-01-24T01:40:55;23.17;;;8.35;;
35442;SDS011;21561;55.654;37.592;2023-01-24T01:43:23;23.70;;;8.93;;
35442;SDS011;21561;55.654;37.592;2023-01-24T01:45:53;25.52;;;8.23;;
35442;SDS011;21561;55.654;37.592;2023-01-24T01:51:13;24.30;;;7.85;;
35442;SDS011;21561;55.654;37.592;2023-01-24T01:54:01;26.33;;;9.18;;
35442;SDS011;21561;55.654;37.592;2023-01-24T01:56:33;24.08;;;9.05;;
35442;SDS011;21561;55.654;37.592;2023-01-24T01:59:06;25.55;;;9.00;;
35442;SDS011;21561;55.654;37.592;2023-01-24T02:01:38;26.23;;;8.82;;
35442;SDS011;21561;55.654;37.592;2023-01-24T02:04:12;26.38;;;8.98;;
35442;SDS011;21561;55.654;37.592;2023-01-24T02:06:48;22.10;;;8.73;;
35442;SDS011;21561;55.654;37.592;2023-01-24T02:09:27;22.58;;;8.07;;
35442;SDS011;21561;55.654;37.592;2023-01-24T02:11:59;23.30;;;8.43;;
35442;SDS011;21561;55.654;37.592;2023-01-24T02:14:29;21.73;;;8.25;;
35442;SDS011;21561;55.654;37.592;2023-01-24T02:17:19;23.60;;;7.88;;
35442;SDS011;21561;55.654;37.592;2023-01-24T02:20:02;23.07;;;7.00;;
35442;SDS011;21561;55.654;37.592;2023-01-24T02:25:18;25.08;;;7.63;;
35442;SDS011;21561;55.654;37.592;2023-01-24T02:27:55;23.00;;;7.78;;
35442;SDS011;21561;55.654;37.592;2023-01-24T02:30:24;24.77;;;8.00;;
35442;SDS011;21561;55.654;37.592;2023-01-24T02:32:51;20.75;;;6.60;;
35442;SDS011;21561;55.654;37.592;2023-01-24T02:35:25;20.42;;;7.07;;
35442;SDS011;21561;55.654;37.592;2023-01-24T02:37:55;21.65;;;8.10;;
35442;SDS011;21561;55.654;37.592;2023-01-24T02:40:29;20.88;;;6.90;;
35442;SDS011;21561;55.654;37.592;2023-01-24T02:42:58;22.70;;;8.13;;
35442;SDS011;21561;55.654;37.592;2023-01-24T02:45:29;20.23;;;6.63;;
35442;SDS011;21561;55.654;37.592;2023-01-24T02:47:58;21.30;;;7.03;;
35442;SDS011;21561;55.654;37.592;2023-01-24T02:50:26;22.15;;;7.25;;
35442;SDS011;21561;55.654;37.592;2023-01-24T02:52:54;20.55;;;6.15;;
35442;SDS011;21561;55.654;37.592;2023-01-24T02:55:40;21.73;;;7.47;;
35442;SDS011;21561;55.654;37.592;2023-01-24T02:58:25;23.52;;;6.93;;
35442;SDS011;21561;55.654;37.592;2023-01-24T03:00:53;21.75;;;6.50;;
35442;SDS011;21561;55.654;37.592;2023-01-24T03:03:20;19.10;;;6.65;;
35442;SDS011;21561;55.654;37.592;2023-01-24T03:05:46;21.17;;;7.47;;
35442;SDS011;21561;55.654;37.592;2023-01-24T03:08:34;21.55;;;7.32;;
35442;SDS011;21561;55.654;37.592;2023-01-24T03:11:01;23.25;;;6.93;;
35442;SDS011;21561;55.654;37.592;2023-01-24T03:13:29;23.13;;;7.28;;
35442;SDS011;21561;55.654;37.592;2023-01-24T03:16:15;20.23;;;7.53;;
35442;SDS011;21561;55.654;37.592;2023-01-24T03:19:01;24.20;;;7.65;;
35442;SDS011;21561;55.654;37.592;2023-01-24T03:21:47;23.40;;;7.47;;
35442;SDS011;21561;55.654;37.592;2023-01-24T03:24:32;24.83;;;7.65;;
35442;SDS011;21561;55.654;37.592;2023-01-24T03:27:18;26.17;;;8.63;;
35442;SDS011;21561;55.654;37.592;2023-01-24T03:30:04;23.38;;;8.13;;
35442;SDS011;21561;55.654;37.592;2023-01-24T03:32:50;28.23;;;8.40;;
35442;SDS011;21561;55.654;37.592;2023-01-24T03:35:36;23.55;;;7.55;;
35442;SDS011;21561;55.654;37.592;2023-01-24T03:38:03;28.45;;;8.68;;
35442;SDS011;21561;55.654;37.592;2023-01-24T03:40:50;25.25;;;8.38;;
35442;SDS011;21561;55.654;37.592;2023-01-24T03:43:18;24.27;;;8.77;;
35442;SDS011;21561;55.654;37.592;2023-01-24T03:45:45;21.48;;;7.38;;
35442;SDS011;21561;55.654;37.592;2023-01-24T03:48:12;25.85;;;8.07;;
35442;SDS011;21561;55.654;37.592;2023-01-24T03:50:40;22.45;;;7.90;;
35442;SDS011;21561;55.654;37.592;2023-01-24T03:53:28;23.63;;;7.32;;
35442;SDS011;21561;55.654;37.592;2023-01-24T03:55:58;23.27;;;7.95;;
35442;SDS011;21561;55.654;37.592;2023-01-24T03:58:27;23.33;;;7.57;;
35442;SDS011;21561;55.654;37.592;2023-01-24T04:00:55;22.80;;;7.88;;
35442;SDS011;21561;55.654;37.592;2023-01-24T04:03:22;20.73;;;7.05;;
35442;SDS011;21561;55.654;37.592;2023-01-24T04:05:50;24.02;;;8.05;;
35442;SDS011;21561;55.654;37.592;2023-01-24T04:08:17;21.45;;;6.93;;
35442;SDS011;21561;55.654;37.592;2023-01-24T04:10:44;23.70;;;7.90;;
35442;SDS011;21561;55.654;37.592;2023-01-24T04:13:11;22.48;;;8.00;;
35442;SDS011;21561;55.654;37.592;2023-01-24T04:15:38;24.50;;;8.52;;
35442;SDS011;21561;55.654;37.592;2023-01-24T04:18:06;23.55;;;7.05;;
35442;SDS011;21561;55.654;37.592;2023-01-24T04:20:34;25.30;;;8.20;;
35442;SDS011;21561;55.654;37.592;2023-01-24T04:23:03;21.92;;;7.72;;
35442;SDS011;21561;55.654;37.592;2023-01-24T04:25:31;24.13;;;8.07;;
35442;SDS011;21561;55.654;37.592;2023-01-24T04:27:58;20.90;;;7.35;;
35442;SDS011;21561;55.654;37.592;2023-01-24T04:30:26;23.45;;;7.63;;
35442;SDS011;21561;55.654;37.592;2023-01-24T04:32:53;23.50;;;8.27;;
35442;SDS011;21561;55.654;37.592;2023-01-24T04:35:22;22.10;;;8.25;;
35442;SDS011;21561;55.654;37.592;2023-01-24T04:37:51;23.00;;;7.57;;
35442;SDS011;21561;55.654;37.592;2023-01-24T04:40:18;22.52;;;7.97;;
35442;SDS011;21561;55.654;37.592;2023-01-24T04:42:44;20.90;;;7.68;;
35442;SDS011;21561;55.654;37.592;2023-01-24T04:45:11;26.17;;;8.10;;
35442;SDS011;21561;55.654;37.592;2023-01-24T04:47:38;22.67;;;8.30;;
35442;SDS011;21561;55.654;37.592;2023-01-24T04:50:05;22.38;;;7.20;;
35442;SDS011;21561;55.654;37.592;2023-01-24T04:52:32;22.58;;;8.48;;
35442;SDS011;21561;55.654;37.592;2023-01-24T04:54:59;26.52;;;8.00;;
35442;SDS011;21561;55.654;37.592;2023-01-24T04:57:26;21.90;;;7.78;;
35442;SDS011;21561;55.654;37.592;2023-01-24T04:59:53;26.05;;;8.18;;
35442;SDS011;21561;55.654;37.592;2023-01-24T05:02:20;19.52;;;6.75;;
35442;SDS011;21561;55.654;37.592;2023-01-24T05:04:46;22.80;;;7.82;;
35442;SDS011;21561;55.654;37.592;2023-01-24T05:07:13;24.05;;;7.75;;
35442;SDS011;21561;55.654;37.592;2023-01-24T05:09:40;22.63;;;7.05;;
35442;SDS011;21561;55.654;37.592;2023-01-24T05:12:07;22.00;;;7.40;;
35442;SDS011;21561;55.654;37.592;2023-01-24T05:14:34;23.10;;;7.75;;
35442;SDS011;21561;55.654;37.592;2023-01-24T05:17:01;25.20;;;7.53;;
35442;SDS011;21561;55.654;37.592;2023-01-24T05:19:28;24.17;;;7.78;;
35442;SDS011;21561;55.654;37.592;2023-01-24T05:21:56;21.77;;;7.75;;
35442;SDS011;21561;55.654;37.592;2023-01-24T05:24:23;21.95;;;6.85;;
35442;SDS011;21561;55.654;37.592;2023-01-24T05:26:50;24.23;;;7.47;;
35442;SDS011;21561;55.654;37.592;2023-01-24T05:29:17;21.33;;;7.20;;
35442;SDS011;21561;55.654;37.592;2023-01-24T05:31:43;23.92;;;8.23;;
35442;SDS011;21561;55.654;37.592;2023-01-24T05:34:10;22.80;;;7.80;;
35442;SDS011;21561;55.654;37.592;2023-01-24T05:36:37;18.55;;;6.18;;
35442;SDS011;21561;55.654;37.592;2023-01-24T05:39:04;21.38;;;8.18;;
35442;SDS011;21561;55.654;37.592;2023-01-24T05:41:31;24.40;;;7.82;;
35442;SDS011;21561;55.654;37.592;2023-01-24T05:43:57;23.13;;;7.85;;
35442;SDS011;21561;55.654;37.592;2023-01-24T05:46:24;22.98;;;7.55;;
35442;SDS011;21561;55.654;37.592;2023-01-24T05:48:51;22.05;;;6.28;;
35442;SDS011;21561;55.654;37.592;2023-01-24T05:51:18;19.88;;;7.30;;
35442;SDS011;21561;55.654;37.592;2023-01-24T05:53:48;23.05;;;7.65;;
35442;SDS011;21561;55.654;37.592;2023-01-24T05:56:16;21.10;;;7.05;;
35442;SDS011;21561;55.654;37.592;2023-01-24T05:58:44;20.58;;;7.15;;
35442;SDS011;21561;55.654;37.592;2023-01-24T06:01:13;18.50;;;6.45;;
35442;SDS011;21561;55.654;37.592;2023-01-24T06:03:48;19.15;;;6.93;;
35442;SDS011;21561;55.654;37.592;2023-01-24T06:06:18;22.42;;;7.43;;
35442;SDS011;21561;55.654;37.592;2023-01-24T06:08:48;22.00;;;7.15;;
35442;SDS011;21561;55.654;37.592;2023-01-24T06:11:18;19.65;;;6.22;;
35442;SDS011;21561;55.654;37.592;2023-01-24T06:13:53;20.52;;;6.88;;
35442;SDS011;21561;55.654;37.592;2023-01-24T06:16:22;23.85;;;7.38;;
35442;SDS011;21561;55.654;37.592;2023-01-24T06:18:51;23.80;;;7.88;;
35442;SDS011;21561;55.654;37.592;2023-01-24T06:24:14;20.60;;;7.30;;
35442;SDS011;21561;55.654;37.592;2023-01-24T06:26:44;21.88;;;7.30;;
35442;SDS011;21561;55.654;37.592;2023-01-24T06:29:12;21.40;;;7.38;;
35442;SDS011;21561;55.654;37.592;2023-01-24T06:31:46;22.65;;;7.28;;
35442;SDS011;21561;55.654;37.592;2023-01-24T06:37:51;27.58;;;7.78;;
35442;SDS011;21561;55.654;37.592;2023-01-24T06:40:20;22.73;;;7.82;;
35442;SDS011;21561;55.654;37.592;2023-01-24T06:42:51;23.58;;;7.75;;
35442;SDS011;21561;55.654;37.592;2023-01-24T06:45:19;23.65;;;7.78;;
35442;SDS011;21561;55.654;37.592;2023-01-24T06:47:47;22.33;;;7.45;;
35442;SDS011;21561;55.654;37.592;2023-01-24T06:50:18;27.30;;;8.70;;
35442;SDS011;21561;55.654;37.592;2023-01-24T06:52:48;23.23;;;7.80;;
35442;SDS011;21561;55.654;37.592;2023-01-24T06:55:15;24.08;;;8.23;;
35442;SDS011;21561;55.654;37.592;2023-01-24T06:57:42;22.30;;;7.90;;
35442;SDS011;21561;55.654;37.592;2023-01-24T07:00:10;22.60;;;7.82;;
35442;SDS011;21561;55.654;37.592;2023-01-24T07:02:37;23.98;;;7.93;;
35442;SDS011;21561;55.654;37.592;2023-01-24T07:05:04;26.15;;;8.02;;
35442;SDS011;21561;55.654;37.592;2023-01-24T07:07:31;22.50;;;7.28;;
35442;SDS011;21561;55.654;37.592;2023-01-24T07:09:58;22.20;;;7.78;;
35442;SDS011;21561;55.654;37.592;2023-01-24T07:12:25;22.05;;;7.13;;
35442;SDS011;21561;55.654;37.592;2023-01-24T07:14:51;23.20;;;7.10;;
35442;SDS011;21561;55.654;37.592;2023-01-24T07:17:18;23.48;;;8.70;;
35442;SDS011;21561;55.654;37.592;2023-01-24T07:19:45;20.00;;;7.05;;
35442;SDS011;21561;55.654;37.592;2023-01-24T07:22:12;22.48;;;6.85;;
35442;SDS011;21561;55.654;37.592;2023-01-24T07:24:40;22.25;;;6.60;;
35442;SDS011;21561;55.654;37.592;2023-01-24T07:27:08;20.17;;;7.72;;
35442;SDS011;21561;55.654;37.592;2023-01-24T07:29:35;21.77;;;6.95;;
35442;SDS011;21561;55.654;37.592;2023-01-24T07:32:02;20.88;;;6.63;;
35442;SDS011;21561;55.654;37.592;2023-01-24T07:34:29;18.90;;;5.70;;
35442;SDS011;21561;55.654;37.592;2023-01-24T07:36:56;22.17;;;8.05;;
35442;SDS011;21561;55.654;37.592;2023-01-24T07:39:23;21.15;;;7.80;;
35442;SDS011;21561;55.654;37.592;2023-01-24T07:41:50;21.58;;;7.60;;
35442;SDS011;21561;55.654;37.592;2023-01-24T07:44:17;22.45;;;7.50;;
35442;SDS011;21561;55.654;37.592;2023-01-24T07:46:43;19.33;;;6.75;;
35442;SDS011;21561;55.654;37.592;2023-01-24T07:49:10;22.00;;;7.55;;
35442;SDS011;21561;55.654;37.592;2023-01-24T07:51:37;21.40;;;7.07;;
35442;SDS011;21561;55.654;37.592;2023-01-24T07:54:04;20.27;;;6.95;;
35442;SDS011;21561;55.654;37.592;2023-01-24T07:56:31;20.65;;;6.88;;
35442;SDS011;21561;55.654;37.592;2023-01-24T07:59:00;21.58;;;7.38;;
35442;SDS011;21561;55.654;37.592;2023-01-24T08:01:27;21.55;;;7.25;;
35442;SDS011;21561;55.654;37.592;2023-01-24T08:03:57;22.20;;;7.75;;
35442;SDS011;21561;55.654;37.592;2023-01-24T08:06:24;31.73;;;7.78;;
35442;SDS011;21561;55.654;37.592;2023-01-24T08:08:51;26.40;;;7.15;;
35442;SDS011;21561;55.654;37.592;2023-01-24T08:11:18;22.73;;;7.43;;
35442;SDS011;21561;55.654;37.592;2023-01-24T08:13:45;20.83;;;7.50;;
35442;SDS011;21561;55.654;37.592;2023-01-24T08:16:13;19.63;;;6.43;;
35442;SDS011;21561;55.654;37.592;2023-01-24T08:18:40;20.42;;;6.82;;
35442;SDS011;21561;55.654;37.592;2023-01-24T08:21:07;23.00;;;7.00;;
35442;SDS011;21561;55.654;37.592;2023-01-24T08:23:34;21.25;;;7.25;;
35442;SDS011;21561;55.654;37.592;2023-01-24T08:26:02;19.55;;;6.88;;
35442;SDS011;21561;55.654;37.592;2023-01-24T08:28:32;23.45;;;7.38;;
35442;SDS011;21561;55.654;37.592;2023-01-24T08:31:03;19.48;;;6.65;;
35442;SDS011;21561;55.654;37.592;2023-01-24T08:33:30;21.08;;;6.75;;
35442;SDS011;21561;55.654;37.592;2023-01-24T08:35:59;20.75;;;6.55;;
35442;SDS011;21561;55.654;37.592;2023-01-24T08:38:31;19.05;;;6.50;;
35442;SDS011;21561;55.654;37.592;2023-01-24T08:41:01;21.27;;;6.68;;
35442;SDS011;21561;55.654;37.592;2023-01-24T08:43:29;20.40;;;6.75;;
35442;SDS011;21561;55.654;37.592;2023-01-24T08:45:56;22.42;;;7.22;;
35442;SDS011;21561;55.654;37.592;2023-01-24T08:48:24;19.13;;;6.60;;
35442;SDS011;21561;55.654;37.592;2023-01-24T08:50:51;21.83;;;7.05;;
35442;SDS011;21561;55.654;37.592;2023-01-24T08:53:18;19.30;;;7.35;;
35442;SDS011;21561;55.654;37.592;2023-01-24T08:55:47;23.92;;;6.82;;
35442;SDS011;21561;55.654;37.592;2023-01-24T08:58:15;20.08;;;6.47;;
35442;SDS011;21561;55.654;37.592;2023-01-24T09:00:42;20.65;;;6.70;;
35442;SDS011;21561;55.654;37.592;2023-01-24T09:03:09;20.00;;;6.68;;
35442;SDS011;21561;55.654;37.592;2023-01-24T09:05:38;18.88;;;6.15;;
35442;SDS011;21561;55.654;37.592;2023-01-24T09:08:05;20.02;;;7.10;;
35442;SDS011;21561;55.654;37.592;2023-01-24T09:10:32;17.65;;;6.82;;
35442;SDS011;21561;55.654;37.592;2023-01-24T09:12:59;20.08;;;6.90;;
35442;SDS011;21561;55.654;37.592;2023-01-24T09:15:27;25.23;;;7.82;;
35442;SDS011;21561;55.654;37.592;2023-01-24T09:17:53;21.88;;;6.50;;
35442;SDS011;21561;55.654;37.592;2023-01-24T09:20:21;20.90;;;7.22;;
35442;SDS011;21561;55.654;37.592;2023-01-24T09:22:48;23.42;;;6.88;;
35442;SDS011;21561;55.654;37.592;2023-01-24T09:25:14;20.83;;;6.55;;
35442;SDS011;21561;55.654;37.592;2023-01-24T09:27:41;21.17;;;7.00;;
35442;SDS011;21561;55.654;37.592;2023-01-24T09:30:08;21.75;;;6.68;;
35442;SDS011;21561;55.654;37.592;2023-01-24T09:32:36;20.02;;;6.70;;
35442;SDS011;21561;55.654;37.592;2023-01-24T09:35:03;20.90;;;6.82;;
35442;SDS011;21561;55.654;37.592;2023-01-24T09:37:30;19.33;;;6.45;;
35442;SDS011;21561;55.654;37.592;2023-01-24T09:39:57;19.67;;;5.85;;
35442;SDS011;21561;55.654;37.592;2023-01-24T09:47:51;18.17;;;6.30;;
35442;SDS011;21561;55.654;37.592;2023-01-24T09:53:13;17.52;;;5.75;;
35442;SDS011;21561;55.654;37.592;2023-01-24T09:55:46;20.67;;;6.53;;
35442;SDS011;21561;55.654;37.592;2023-01-24T10:00:53;20.38;;;6.40;;
35442;SDS011;21561;55.654;37.592;2023-01-24T10:03:21;18.85;;;5.95;;
35442;SDS011;21561;55.654;37.592;2023-01-24T10:05:54;19.17;;;6.63;;
35442;SDS011;21561;55.654;37.592;2023-01-24T10:08:37;19.30;;;6.47;;
35442;SDS011;21561;55.654;37.592;2023-01-24T10:17:12;19.25;;;6.68;;
35442;SDS011;21561;55.654;37.592;2023-01-24T10:20:17;22.85;;;6.90;;
35442;SDS011;21561;55.654;37.592;2023-01-24T10:28:08;18.98;;;6.47;;
35442;SDS011;21561;55.654;37.592;2023-01-24T10:30:53;22.70;;;6.30;;
35442;SDS011;21561;55.654;37.592;2023-01-24T10:33:26;21.88;;;6.68;;
35442;SDS011;21561;55.654;37.592;2023-01-24T10:36:00;19.88;;;6.65;;
35442;SDS011;21561;55.654;37.592;2023-01-24T10:38:41;20.77;;;6.60;;
35442;SDS011;21561;55.654;37.592;2023-01-24T10:41:36;20.05;;;6.10;;
35442;SDS011;21561;55.654;37.592;2023-01-24T10:44:12;21.05;;;6.45;;
35442;SDS011;21561;55.654;37.592;2023-01-24T10:49:35;20.35;;;6.10;;
35442;SDS011;21561;55.654;37.592;2023-01-24T10:52:16;21.27;;;6.53;;
35442;SDS011;21561;55.654;37.592;2023-01-24T10:54:46;20.35;;;6.03;;
35442;SDS011;21561;55.654;37.592;2023-01-24T10:57:47;18.42;;;5.82;;
35442;SDS011;21561;55.654;37.592;2023-01-24T11:03:02;19.35;;;6.25;;
35442;SDS011;21561;55.654;37.592;2023-01-24T11:05:38;17.05;;;5.65;;
35442;SDS011;21561;55.654;37.592;2023-01-24T11:08:18;18.63;;;6.43;;
35442;SDS011;21561;55.654;37.592;2023-01-24T11:10:57;19.17;;;6.38;;
35442;SDS011;21561;55.654;37.592;2023-01-24T11:18:55;20.88;;;6.38;;
35442;SDS011;21561;55.654;37.592;2023-01-24T11:21:25;17.55;;;5.72;;
35442;SDS011;21561;55.654;37.592;2023-01-24T11:26:36;18.45;;;6.80;;
35442;SDS011;21561;55.654;37.592;2023-01-24T11:29:18;19.67;;;6.93;;
35442;SDS011;21561;55.654;37.592;2023-01-24T11:31:49;18.90;;;5.88;;
35442;SDS011;21561;55.654;37.592;2023-01-24T11:34:28;21.15;;;7.07;;
35442;SDS011;21561;55.654;37.592;2023-01-24T11:39:55;17.75;;;6.53;;
35442;SDS011;21561;55.654;37.592;2023-01-24T11:50:53;18.65;;;5.97;;
35442;SDS011;21561;55.654;37.592;2023-01-24T11:53:55;19.10;;;6.40;;
35442;SDS011;21561;55.654;37.592;2023-01-24T11:56:42;16.90;;;5.68;;
35442;SDS011;21561;55.654;37.592;2023-01-24T12:05:18;17.20;;;5.95;;
35442;SDS011;21561;55.654;37.592;2023-01-24T12:19:22;18.58;;;6.18;;
35442;SDS011;21561;55.654;37.592;2023-01-24T12:22:22;17.67;;;5.80;;
35442;SDS011;21561;55.654;37.592;2023-01-24T12:24:54;18.58;;;5.93;;
35442;SDS011;21561;55.654;37.592;2023-01-24T12:27:30;16.90;;;6.00;;
35442;SDS011;21561;55.654;37.592;2023-01-24T12:30:47;17.67;;;5.40;;
35442;SDS011;21561;55.654;37.592;2023-01-24T12:36:12;18.40;;;6.20;;
35442;SDS011;21561;55.654;37.592;2023-01-24T12:38:51;16.60;;;5.35;;
35442;SDS011;21561;55.654;37.592;2023-01-24T12:41:27;16.45;;;5.18;;
35442;SDS011;21561;55.654;37.592;2023-01-24T12:46:45;16.92;;;5.53;;
35442;SDS011;21561;55.654;37.592;2023-01-24T12:55:16;17.02;;;4.70;;
35442;SDS011;21561;55.654;37.592;2023-01-24T12:57:58;15.70;;;5.07;;
35442;SDS011;21561;55.654;37.592;2023-01-24T13:00:32;16.30;;;5.30;;
35442;SDS011;21561;55.654;37.592;2023-01-24T13:08:49;18.70;;;4.63;;
35442;SDS011;21561;55.654;37.592;2023-01-24T13:11:25;16.73;;;5.15;;
35442;SDS011;21561;55.654;37.592;2023-01-24T13:17:30;18.02;;;5.15;;
35442;SDS011;21561;55.654;37.592;2023-01-24T13:20:17;17.90;;;5.03;;
35442;SDS011;21561;55.654;37.592;2023-01-24T13:31:23;17.48;;;5.07;;
35442;SDS011;21561;55.654;37.592;2023-01-24T13:36:45;15.98;;;5.00;;
35442;SDS011;21561;55.654;37.592;2023-01-24T13:42:39;15.95;;;4.97;;
35442;SDS011;21561;55.654;37.592;2023-01-24T13:47:58;18.17;;;5.57;;
35442;SDS011;21561;55.654;37.592;2023-01-24T13:50:27;15.68;;;4.70;;
35442;SDS011;21561;55.654;37.592;2023-01-24T13:52:58;18.33;;;5.68;;
35442;SDS011;21561;55.654;37.592;2023-01-24T14:05:54;16.55;;;4.55;;
35442;SDS011;21561;55.654;37.592;2023-01-24T14:13:43;14.68;;;5.07;;
35442;SDS011;21561;55.654;37.592;2023-01-24T14:18:56;15.85;;;5.20;;
35442;SDS011;21561;55.654;37.592;2023-01-24T14:21:48;16.00;;;5.43;;
35442;SDS011;21561;55.654;37.592;2023-01-24T14:24:29;16.45;;;5.10;;
35442;SDS011;21561;55.654;37.592;2023-01-24T14:27:00;17.08;;;5.18;;
35442;SDS011;21561;55.654;37.592;2023-01-24T14:29:42;16.42;;;4.72;;
35442;SDS011;21561;55.654;37.592;2023-01-24T14:32:55;14.15;;;4.72;;
35442;SDS011;21561;55.654;37.592;2023-01-24T14:37:44;17.55;;;4.93;;
35442;SDS011;21561;55.654;37.592;2023-01-24T14:40:21;15.10;;;5.22;;
35442;SDS011;21561;55.654;37.592;2023-01-24T14:42:51;15.60;;;5.00;;
35442;SDS011;21561;55.654;37.592;2023-01-24T14:45:29;17.70;;;5.32;;
35442;SDS011;21561;55.654;37.592;2023-01-24T14:47:57;17.02;;;5.45;;
35442;SDS011;21561;55.654;37.592;2023-01-24T14:52:55;14.57;;;4.80;;
35442;SDS011;21561;55.654;37.592;2023-01-24T14:58:12;17.38;;;5.38;;
35442;SDS011;21561;55.654;37.592;2023-01-24T15:01:00;18.52;;;5.22;;
35442;SDS011;21561;55.654;37.592;2023-01-24T15:03:32;15.88;;;4.90;;
35442;SDS011;21561;55.654;37.592;2023-01-24T15:08:32;14.67;;;4.73;;
35442;SDS011;21561;55.654;37.592;2023-01-24T15:11:02;15.57;;;5.30;;
35442;SDS011;21561;55.654;37.592;2023-01-24T15:16:23;19.33;;;5.25;;
35442;SDS011;21561;55.654;37.592;2023-01-24T15:21:51;14.68;;;4.85;;
35442;SDS011;21561;55.654;37.592;2023-01-24T15:24:22;15.75;;;4.78;;
35442;SDS011;21561;55.654;37.592;2023-01-24T15:26:51;15.80;;;5.35;;
35442;SDS011;21561;55.654;37.592;2023-01-24T15:32:38;17.58;;;5.07;;
35442;SDS011;21561;55.654;37.592;2023-01-24T15:35:15;16.38;;;5.60;;
35442;SDS011;21561;55.654;37.592;2023-01-24T15:43:36;20.25;;;5.72;;
35442;SDS011;21561;55.654;37.592;2023-01-24T15:46:22;16.40;;;5.28;;
35442;SDS011;21561;55.654;37.592;2023-01-24T15:49:20;17.60;;;5.07;;
35442;SDS011;21561;55.654;37.592;2023-01-24T15:54:38;18.00;;;5.50;;
35442;SDS011;21561;55.654;37.592;2023-01-24T15:57:11;16.45;;;5.43;;
35442;SDS011;21561;55.654;37.592;2023-01-24T15:59:45;17.77;;;5.43;;
35442;SDS011;21561;55.654;37.592;2023-01-24T16:02:17;18.17;;;5.70;;
35442;SDS011;21561;55.654;37.592;2023-01-24T16:04:43;16.45;;;5.57;;
35442;SDS011;21561;55.654;37.592;2023-01-24T16:07:11;15.93;;;5.35;;
35442;SDS011;21561;55.654;37.592;2023-01-24T16:09:38;18.55;;;6.30;;
35442;SDS011;21561;55.654;37.592;2023-01-24T16:12:05;17.85;;;6.03;;
35442;SDS011;21561;55.654;37.592;2023-01-24T16:17:37;16.48;;;5.07;;
35442;SDS011;21561;55.654;37.592;2023-01-24T16:20:10;16.15;;;5.47;;
35442;SDS011;21561;55.654;37.592;2023-01-24T16:22:44;16.48;;;5.50;;
35442;SDS011;21561;55.654;37.592;2023-01-24T16:25:12;17.67;;;5.30;;
35442;SDS011;21561;55.654;37.592;2023-01-24T16:27:40;16.48;;;5.70;;
35442;SDS011;21561;55.654;37.592;2023-01-24T16:32:42;17.45;;;6.32;;
35442;SDS011;21561;55.654;37.592;2023-01-24T16:35:09;17.55;;;6.72;;
35442;SDS011;21561;55.654;37.592;2023-01-24T16:37:35;18.58;;;5.55;;
35442;SDS011;21561;55.654;37.592;2023-01-24T16:40:02;18.33;;;6.07;;
35442;SDS011;21561;55.654;37.592;2023-01-24T16:42:30;15.88;;;5.90;;
35442;SDS011;21561;55.654;37.592;2023-01-24T16:44:58;16.52;;;5.70;;
35442;SDS011;21561;55.654;37.592;2023-01-24T16:47:26;18.50;;;6.70;;
35442;SDS011;21561;55.654;37.592;2023-01-24T16:49:54;17.48;;;6.05;;
35442;SDS011;21561;55.654;37.592;2023-01-24T16:52:22;16.50;;;5.65;;
35442;SDS011;21561;55.654;37.592;2023-01-24T16:54:51;16.58;;;5.53;;
35442;SDS011;21561;55.654;37.592;2023-01-24T16:57:18;18.50;;;6.90;;
35442;SDS011;21561;55.654;37.592;2023-01-24T16:59:46;18.30;;;6.20;;
35442;SDS011;21561;55.654;37.592;2023-01-24T17:02:12;16.50;;;5.25;;
35442;SDS011;21561;55.654;37.592;2023-01-24T17:04:39;20.92;;;6.18;;
35442;SDS011;21561;55.654;37.592;2023-01-24T17:07:06;17.50;;;5.68;;
35442;SDS011;21561;55.654;37.592;2023-01-24T17:09:33;18.73;;;6.40;;
35442;SDS011;21561;55.654;37.592;2023-01-24T17:12:00;18.33;;;6.50;;
35442;SDS011;21561;55.654;37.592;2023-01-24T17:14:39;17.55;;;5.95;;
35442;SDS011;21561;55.654;37.592;2023-01-24T17:17:07;19.13;;;6.30;;
35442;SDS011;21561;55.654;37.592;2023-01-24T17:19:34;20.42;;;6.55;;
35442;SDS011;21561;55.654;37.592;2023-01-24T17:22:03;19.10;;;6.03;;
35442;SDS011;21561;55.654;37.592;2023-01-24T17:24:31;18.50;;;5.88;;
35442;SDS011;21561;55.654;37.592;2023-01-24T17:26:58;20.60;;;6.50;;
35442;SDS011;21561;55.654;37.592;2023-01-24T17:29:24;18.30;;;6.53;;
35442;SDS011;21561;55.654;37.592;2023-01-24T17:31:54;16.63;;;4.82;;
35442;SDS011;21561;55.654;37.592;2023-01-24T17:34:22;19.10;;;6.25;;